Terminal Aerodrome Forecast
Issued by NWS Portland, OR

Home | Current Version | Previous Version | Text Only | Print | Product List | Glossary On
Versions: 1 2 3 4 5 6 7 8 9 10 11 12 13 14 15 16 17
000
FTUS46 KPQR 031130
TAFAST
TAF
KAST 031130Z 0312/0412 21009KT P6SM VCSH SCT018 BKN080
      TEMPO 0312/0316 BKN018 OVC080
     FM031700 28004KT P6SM BKN022 OVC035
     FM032000 31011KT P6SM SCT025 OVC040
     FM032200 31013G22KT P6SM SCT025 BKN045
     FM040200 32014KT P6SM VCSH BKN015 OVC025=

USA.gov is the U.S. government's official web portal to all federal, state and local government web resources and services.